ZA-0042 weather

Adamsfontein Airport
Colesberg, Northern Cape, South Africa

Public forecast

Using degrees Celsius for public forecast. Weather courtesy of forecast.io.

Closest aviation weather report (METAR) to Adamsfontein Airport

Report is more than 6 hours old.

Closest report is De Aar Military Airport, 69.3 nm (128.4 km) W. Retrieved 2020/04/07 05:46 UTC (1 day ago):

FADY 070546Z AUTO 25006KT //// // ////// 08/04 Q1018

Closest aviation forecast (TAF) to Adamsfontein Airport

Forecast is more than 6 hours old.

Closest forecast is Bram Fischer International Airport, 104.6 nm (193.7 km) NNE. Retrieved 2020/04/07 18:06 UTC (12 hours ago):

TAF TAF FABL 071600Z 0718/0818 27008KT CAVOK TX20/0812Z TN06/0804Z